Time;durP1;ratioP1;P1;durP2;ratioP2;P2;SDS_P1;SDS_P2;PMS_P1;PMS_P2;Temp;Humidity;BMP_temperature;BMP_pressure;BME280_temperature;BME280_humidity;BME280_pressure;Samples;Min_cycle;Max_cycle;Signal;HPM_P1;HPM_P2
2022/09/12 00:01:18;;;;;;;4.00;0.80;;;;;;;;;;5007493;28;20039;-75
2022/09/12 00:03:44;;;;;;;3.67;0.80;;;;;;;;;;5007113;28;20196;-75
2022/09/12 00:06:20;;;;;;;3.40;0.80;;;;;;;;;;5007039;28;20037;-75
2022/09/12 00:08:46;;;;;;;2.25;0.80;;;;;;;;;;5006981;28;20033;-75
2022/09/12 00:11:11;;;;;;;4.38;0.88;;;;;;;;;;4989797;28;20049;-75
2022/09/12 00:13:38;;;;;;;3.70;0.93;;;;;;;;;;5006910;28;20023;-75
2022/09/12 00:16:04;;;;;;;2.53;0.73;;;;;;;;;;5007173;28;20022;-75
2022/09/12 00:18:31;;;;;;;2.72;0.80;;;;;;;;;;5006839;28;20036;-76
2022/09/12 00:20:56;;;;;;;2.53;0.75;;;;;;;;;;5007004;28;20030;-76
2022/09/12 00:23:21;;;;;;;3.72;1.02;;;;;;;;;;5006705;28;20026;-75
2022/09/12 00:25:48;;;;;;;3.05;0.90;;;;;;;;;;5006861;28;20060;-75
2022/09/12 00:28:15;;;;;;;4.82;0.93;;;;;;;;;;5007802;28;20029;-75
2022/09/12 00:30:46;;;;;;;4.35;1.13;;;;;;;;;;5010481;28;20026;-76
2022/09/12 00:33:12;;;;;;;3.53;0.80;;;;;;;;;;5010520;28;20535;-76
2022/09/12 00:35:49;;;;;;;3.67;1.00;;;;;;;;;;5010420;28;20071;-75
2022/09/12 00:38:16;;;;;;;5.38;0.90;;;;;;;;;;5009989;28;20494;-75
2022/09/12 00:40:42;;;;;;;3.85;0.88;;;;;;;;;;5010131;28;20047;-75
2022/09/12 00:43:30;;;;;;;6.50;1.10;;;;;;;;;;5009703;28;20117;-76
2022/09/12 00:45:57;;;;;;;4.05;0.90;;;;;;;;;;5010158;28;20052;-75
2022/09/12 00:48:47;;;;;;;3.90;1.10;;;;;;;;;;5009797;28;20030;-76
2022/09/12 00:51:13;;;;;;;2.78;0.82;;;;;;;;;;4992137;28;20049;-75
2022/09/12 00:53:42;;;;;;;4.38;1.00;;;;;;;;;;5009771;28;20038;-76
2022/09/12 00:56:09;;;;;;;2.58;0.85;;;;;;;;;;5010026;28;20036;-76
2022/09/12 00:58:46;;;;;;;3.53;0.90;;;;;;;;;;5009473;28;20117;-75
2022/09/12 01:01:11;;;;;;;3.40;0.90;;;;;;;;;;5009842;28;20030;-75
2022/09/12 01:03:37;;;;;;;4.22;0.90;;;;;;;;;;5009682;28;20034;-75
2022/09/12 01:06:19;;;;;;;3.03;0.75;;;;;;;;;;5009903;28;20063;-75
2022/09/12 01:08:46;;;;;;;2.83;0.88;;;;;;;;;;5009708;28;20026;-75
2022/09/12 01:11:13;;;;;;;1.67;0.70;;;;;;;;;;5009822;28;20040;-75
2022/09/12 01:13:39;;;;;;;4.97;1.25;;;;;;;;;;5009295;28;20026;-75
2022/09/12 01:16:05;;;;;;;2.60;0.80;;;;;;;;;;5009476;28;20113;-75
2022/09/12 01:19:11;;;;;;;2.00;0.70;;;;;;;;;;5009195;28;20484;-75
2022/09/12 01:22:00;;;;;;;4.78;0.95;;;;;;;;;;5009808;28;20488;-75
2022/09/12 01:25:01;;;;;;;4.20;0.82;;;;;;;;;;5009552;28;20030;-76
2022/09/12 01:27:42;;;;;;;8.00;1.00;;;;;;;;;;5009399;28;20103;-75
2022/09/12 01:30:30;;;;;;;2.28;0.88;;;;;;;;;;5009538;28;20037;-75
2022/09/12 01:33:04;;;;;;;3.40;0.90;;;;;;;;;;5009359;28;20026;-75
2022/09/12 01:35:54;;;;;;;3.35;0.90;;;;;;;;;;5009416;28;20026;-76
2022/09/12 01:38:22;;;;;;;3.97;0.80;;;;;;;;;;5008537;28;20453;-75
2022/09/12 01:41:06;;;;;;;2.88;0.80;;;;;;;;;;5009519;28;20030;-75
2022/09/12 01:43:58;;;;;;;4.38;1.05;;;;;;;;;;5008977;28;20026;-75
2022/09/12 01:46:34;;;;;;;3.33;1.00;;;;;;;;;;5009280;28;20041;-76
2022/09/12 01:49:10;;;;;;;4.00;1.00;;;;;;;;;;4991327;28;20075;-76
2022/09/12 01:51:45;;;;;;;3.30;0.90;;;;;;;;;;5009059;28;20079;-75
2022/09/12 01:54:19;;;;;;;3.50;0.90;;;;;;;;;;5009012;28;20473;-76
2022/09/12 01:56:49;;;;;;;2.10;0.70;;;;;;;;;;4991673;28;20050;-77
2022/09/12 01:59:25;;;;;;;7.90;0.98;;;;;;;;;;5008974;28;20030;-76
2022/09/12 02:02:16;;;;;;;3.75;0.88;;;;;;;;;;5009104;28;20568;-76
2022/09/12 02:04:52;;;;;;;2.92;0.90;;;;;;;;;;4991170;28;20026;-76
2022/09/12 02:07:22;;;;;;;3.88;1.00;;;;;;;;;;5008779;28;20034;-77
2022/09/12 02:10:17;;;;;;;3.75;1.10;;;;;;;;;;5008476;28;20030;-76
2022/09/12 02:12:56;;;;;;;2.53;1.00;;;;;;;;;;5008297;28;20539;-75
2022/09/12 02:15:26;;;;;;;4.95;1.00;;;;;;;;;;5008762;28;20105;-76
2022/09/12 02:17:55;;;;;;;4.68;1.30;;;;;;;;;;5008756;28;20034;-76
2022/09/12 02:20:33;;;;;;;4.05;0.93;;;;;;;;;;5008656;28;20130;-76
2022/09/12 02:22:59;;;;;;;3.78;0.90;;;;;;;;;;5008781;28;20052;-76
2022/09/12 02:25:26;;;;;;;5.38;1.40;;;;;;;;;;5008371;28;20032;-77
2022/09/12 02:27:57;;;;;;;5.55;1.02;;;;;;;;;;5008466;28;20026;-78
2022/09/12 02:30:23;;;;;;;4.55;0.95;;;;;;;;;;5008522;28;20030;-75
2022/09/12 02:33:05;;;;;;;5.00;1.10;;;;;;;;;;5008817;28;20022;-77
2022/09/12 02:35:47;;;;;;;2.50;0.98;;;;;;;;;;5008362;28;20025;-76
2022/09/12 02:38:29;;;;;;;5.28;0.90;;;;;;;;;;5008546;28;20026;-78
2022/09/12 02:40:54;;;;;;;4.40;1.00;;;;;;;;;;5008259;28;20444;-77
2022/09/12 02:43:20;;;;;;;3.88;1.00;;;;;;;;;;5008089;28;20034;-76
2022/09/12 02:45:46;;;;;;;3.97;1.10;;;;;;;;;;4990515;28;20057;-76
2022/09/12 02:48:18;;;;;;;5.30;0.75;;;;;;;;;;5008169;28;20077;-77
2022/09/12 02:50:44;;;;;;;3.45;0.90;;;;;;;;;;5007351;28;20123;-77
2022/09/12 02:53:10;;;;;;;6.63;1.02;;;;;;;;;;5008293;28;20494;-77
2022/09/12 02:55:37;;;;;;;3.92;0.90;;;;;;;;;;5008148;28;20028;-76
2022/09/12 02:58:06;;;;;;;3.00;0.98;;;;;;;;;;5007963;28;20483;-77
2022/09/12 03:00:53;;;;;;;3.10;0.80;;;;;;;;;;5007938;28;20470;-76
2022/09/12 03:03:37;;;;;;;4.40;0.90;;;;;;;;;;5008017;28;20536;-77
2022/09/12 03:06:28;;;;;;;3.50;1.00;;;;;;;;;;5008020;28;20100;-76
2022/09/12 03:09:06;;;;;;;4.72;1.05;;;;;;;;;;4990169;28;20034;-77
2022/09/12 03:11:48;;;;;;;6.28;1.00;;;;;;;;;;5008076;28;20061;-77
2022/09/12 03:14:41;;;;;;;3.72;0.90;;;;;;;;;;4990086;28;20037;-77
2022/09/12 03:17:34;;;;;;;3.13;1.08;;;;;;;;;;5007896;28;20067;-78
2022/09/12 03:20:02;;;;;;;6.97;1.00;;;;;;;;;;5007597;28;20108;-78
2022/09/12 03:22:40;;;;;;;8.10;1.13;;;;;;;;;;5008015;28;20037;-78
2022/09/12 03:25:08;;;;;;;2.35;0.82;;;;;;;;;;5007714;28;20079;-77
2022/09/12 03:28:00;;;;;;;5.68;1.10;;;;;;;;;;4989759;28;20114;-77
2022/09/12 03:30:26;;;;;;;4.45;1.10;;;;;;;;;;5007504;28;20082;-76
2022/09/12 03:32:53;;;;;;;4.72;0.90;;;;;;;;;;5007903;28;20022;-78
2022/09/12 03:35:21;;;;;;;3.92;1.10;;;;;;;;;;5007387;28;20101;-78
2022/09/12 03:37:47;;;;;;;4.40;1.30;;;;;;;;;;5007314;28;20033;-78
2022/09/12 03:40:14;;;;;;;5.03;1.20;;;;;;;;;;5007306;28;20026;-78
2022/09/12 03:42:40;;;;;;;4.75;1.02;;;;;;;;;;5007812;28;20045;-77
2022/09/12 03:45:06;;;;;;;4.57;1.00;;;;;;;;;;5007276;28;20057;-78
2022/09/12 03:47:31;;;;;;;5.82;1.48;;;;;;;;;;5007496;28;20021;-77
2022/09/12 03:49:57;;;;;;;7.18;1.20;;;;;;;;;;5007032;28;20055;-77
2022/09/12 03:52:22;;;;;;;5.30;1.20;;;;;;;;;;5007333;28;20021;-76
2022/09/12 03:54:48;;;;;;;9.13;1.40;;;;;;;;;;5007076;28;20075;-76
2022/09/12 03:57:14;;;;;;;4.68;1.05;;;;;;;;;;5007201;28;20026;-76
2022/09/12 03:59:39;;;;;;;5.60;1.25;;;;;;;;;;4989319;28;20034;-78
2022/09/12 04:02:04;;;;;;;6.20;1.13;;;;;;;;;;5007227;28;20595;-77
2022/09/12 04:04:30;;;;;;;2.92;1.08;;;;;;;;;;5007178;28;20113;-76
2022/09/12 04:06:56;;;;;;;3.40;1.10;;;;;;;;;;5007469;28;20113;-77
2022/09/12 04:09:21;;;;;;;5.05;1.10;;;;;;;;;;5006679;28;20559;-77
2022/09/12 04:11:47;;;;;;;3.72;1.00;;;;;;;;;;5007012;28;20041;-78
2022/09/12 04:14:12;;;;;;;2.90;1.10;;;;;;;;;;5006951;28;20030;-77
2022/09/12 04:16:37;;;;;;;3.03;1.00;;;;;;;;;;5006914;28;20622;-76
2022/09/12 04:19:03;;;;;;;6.13;1.23;;;;;;;;;;5007026;28;20041;-76
2022/09/12 04:21:29;;;;;;;5.57;0.95;;;;;;;;;;5007024;28;20061;-76
2022/09/12 04:23:55;;;;;;;3.47;1.10;;;;;;;;;;5007211;28;20029;-76
2022/09/12 04:26:21;;;;;;;3.78;1.10;;;;;;;;;;4989249;28;20029;-76
2022/09/12 04:28:47;;;;;;;3.10;1.10;;;;;;;;;;5006541;28;20042;-76
2022/09/12 04:31:21;;;;;;;4.80;1.17;;;;;;;;;;5006720;28;20079;-76
2022/09/12 04:33:52;;;;;;;5.28;1.05;;;;;;;;;;5006973;28;20026;-77
2022/09/12 04:36:18;;;;;;;5.68;1.13;;;;;;;;;;5007041;28;20069;-76
2022/09/12 04:38:46;;;;;;;4.05;1.23;;;;;;;;;;5006881;28;20089;-76
2022/09/12 04:41:23;;;;;;;5.47;1.50;;;;;;;;;;5006593;28;20033;-76
2022/09/12 04:43:57;;;;;;;6.78;1.60;;;;;;;;;;5006735;28;20030;-76
2022/09/12 04:46:24;;;;;;;4.60;1.15;;;;;;;;;;5006284;28;20085;-76
2022/09/12 04:48:49;;;;;;;3.28;1.20;;;;;;;;;;5006399;28;20022;-76
2022/09/12 04:51:16;;;;;;;4.72;1.25;;;;;;;;;;5006387;28;20566;-76
2022/09/12 04:53:46;;;;;;;2.80;1.17;;;;;;;;;;5006847;28;20026;-76
2022/09/12 04:56:11;;;;;;;5.05;1.45;;;;;;;;;;5006624;28;20093;-76
2022/09/12 04:58:37;;;;;;;3.25;1.25;;;;;;;;;;5006542;28;20566;-77
2022/09/12 05:01:14;;;;;;;4.10;1.40;;;;;;;;;;5006380;28;20026;-76
2022/09/12 05:03:44;;;;;;;3.88;1.60;;;;;;;;;;5006432;28;20113;-76
2022/09/12 05:06:12;;;;;;;4.45;1.42;;;;;;;;;;5006334;28;20033;-77
2022/09/12 05:08:38;;;;;;;3.38;1.33;;;;;;;;;;5006243;28;20578;-76
2022/09/12 05:11:05;;;;;;;4.35;1.48;;;;;;;;;;5006331;28;20034;-77
2022/09/12 05:13:32;;;;;;;3.22;1.50;;;;;;;;;;5006708;28;20422;-76
2022/09/12 05:15:59;;;;;;;4.82;1.88;;;;;;;;;;5009662;28;20026;-77
2022/09/12 05:18:25;;;;;;;4.90;1.60;;;;;;;;;;5009507;28;20075;-78
2022/09/12 05:20:54;;;;;;;5.60;1.80;;;;;;;;;;5009349;28;20032;-77
2022/09/12 05:23:19;;;;;;;3.03;1.60;;;;;;;;;;5009666;28;20064;-78
2022/09/12 05:25:52;;;;;;;4.60;1.90;;;;;;;;;;5009380;28;20054;-77
2022/09/12 05:28:19;;;;;;;3.28;1.85;;;;;;;;;;5009385;28;20030;-76
2022/09/12 05:30:45;;;;;;;5.20;1.83;;;;;;;;;;5009384;28;20030;-77
2022/09/12 05:33:10;;;;;;;5.32;2.08;;;;;;;;;;5009528;28;20025;-77
2022/09/12 05:35:39;;;;;;;3.13;1.83;;;;;;;;;;5009140;28;20025;-75
2022/09/12 05:38:06;;;;;;;4.93;2.00;;;;;;;;;;4991447;28;20022;-76
2022/09/12 05:40:32;;;;;;;4.82;2.00;;;;;;;;;;5009128;28;20044;-76
2022/09/12 05:42:57;;;;;;;4.55;2.00;;;;;;;;;;5009133;28;20022;-76
2022/09/12 05:45:23;;;;;;;6.65;2.20;;;;;;;;;;5008928;28;20049;-77
2022/09/12 05:47:48;;;;;;;5.70;1.92;;;;;;;;;;5009202;28;20082;-76
2022/09/12 05:50:14;;;;;;;3.60;2.00;;;;;;;;;;5009087;28;20042;-76
2022/09/12 05:52:39;;;;;;;4.20;1.90;;;;;;;;;;5008950;28;20045;-76
2022/09/12 05:55:05;;;;;;;7.43;2.00;;;;;;;;;;5009114;28;20423;-75
2022/09/12 05:57:32;;;;;;;4.65;2.00;;;;;;;;;;5008548;28;20034;-76
2022/09/12 05:59:57;;;;;;;5.25;1.75;;;;;;;;;;5008820;28;20508;-76
2022/09/12 06:02:23;;;;;;;4.18;1.63;;;;;;;;;;4991542;28;20030;-77
2022/09/12 06:04:48;;;;;;;4.47;1.95;;;;;;;;;;5009274;28;20466;-76
2022/09/12 06:07:14;;;;;;;3.53;1.70;;;;;;;;;;5008740;28;20033;-76
2022/09/12 06:09:39;;;;;;;7.82;2.00;;;;;;;;;;5008525;28;20065;-76
2022/09/12 06:12:06;;;;;;;5.00;1.90;;;;;;;;;;5008317;28;20026;-76
2022/09/12 06:14:32;;;;;;;6.70;1.92;;;;;;;;;;5008688;28;20030;-76
2022/09/12 06:16:57;;;;;;;3.60;1.70;;;;;;;;;;5008510;28;20037;-77
2022/09/12 06:19:23;;;;;;;6.45;1.90;;;;;;;;;;5008465;28;20104;-76
2022/09/12 06:21:50;;;;;;;3.72;1.70;;;;;;;;;;5008599;28;20081;-76
2022/09/12 06:24:17;;;;;;;5.30;1.75;;;;;;;;;;5008813;28;20052;-76
2022/09/12 06:26:42;;;;;;;8.38;1.77;;;;;;;;;;5007075;28;20048;-76
2022/09/12 06:29:10;;;;;;;3.55;1.63;;;;;;;;;;5008407;28;20030;-76
2022/09/12 06:31:37;;;;;;;7.22;1.98;;;;;;;;;;5008073;28;20034;-76
2022/09/12 06:34:08;;;;;;;5.03;1.70;;;;;;;;;;5008511;28;20474;-76
2022/09/12 06:36:37;;;;;;;4.63;1.50;;;;;;;;;;5008188;28;20034;-76
2022/09/12 06:39:06;;;;;;;5.78;1.73;;;;;;;;;;5008398;28;20030;-76
2022/09/12 06:41:32;;;;;;;6.07;1.70;;;;;;;;;;5008586;28;20044;-76
2022/09/12 06:43:58;;;;;;;4.53;1.48;;;;;;;;;;5008385;28;20397;-76
2022/09/12 06:46:24;;;;;;;5.65;1.60;;;;;;;;;;5007897;28;20042;-76
2022/09/12 06:48:50;;;;;;;6.55;1.60;;;;;;;;;;5008399;28;20370;-76
2022/09/12 06:51:17;;;;;;;3.78;1.33;;;;;;;;;;5007845;28;20037;-76
2022/09/12 06:53:44;;;;;;;5.72;1.48;;;;;;;;;;5008158;28;20022;-76
2022/09/12 06:56:18;;;;;;;10.80;1.98;;;;;;;;;;5008169;28;20030;-76
2022/09/12 06:58:44;;;;;;;3.13;1.42;;;;;;;;;;5008124;28;20079;-76
2022/09/12 07:01:12;;;;;;;4.57;1.80;;;;;;;;;;5008028;28;20045;-76
2022/09/12 07:03:38;;;;;;;5.10;1.52;;;;;;;;;;5008014;28;20030;-76
2022/09/12 07:06:08;;;;;;;6.18;1.60;;;;;;;;;;5008009;28;20516;-76
2022/09/12 07:08:35;;;;;;;3.55;1.40;;;;;;;;;;5007698;28;20017;-76
2022/09/12 07:11:22;;;;;;;8.25;1.30;;;;;;;;;;5007610;28;20034;-76
2022/09/12 07:13:50;;;;;;;4.50;1.40;;;;;;;;;;4990244;28;20034;-76
2022/09/12 07:16:16;;;;;;;6.68;1.60;;;;;;;;;;5007934;28;20462;-76
2022/09/12 07:18:42;;;;;;;8.52;1.70;;;;;;;;;;5007810;28;20030;-76
2022/09/12 07:21:12;;;;;;;3.72;1.38;;;;;;;;;;5007736;28;20025;-77
2022/09/12 07:23:38;;;;;;;4.95;1.27;;;;;;;;;;5007602;28;20036;-76
2022/09/12 07:26:04;;;;;;;3.97;1.35;;;;;;;;;;5007771;28;20090;-76
2022/09/12 07:28:32;;;;;;;3.40;1.50;;;;;;;;;;5007383;28;20105;-76
2022/09/12 07:31:05;;;;;;;9.23;1.50;;;;;;;;;;5007618;28;20034;-77
2022/09/12 07:33:30;;;;;;;3.33;1.42;;;;;;;;;;5007570;28;20030;-77
2022/09/12 07:36:00;;;;;;;9.20;1.40;;;;;;;;;;5007744;28;20100;-75
2022/09/12 07:38:25;;;;;;;7.68;1.30;;;;;;;;;;4989311;28;20557;-76
2022/09/12 07:40:51;;;;;;;3.00;1.23;;;;;;;;;;5007339;28;20117;-75
2022/09/12 07:43:16;;;;;;;4.53;1.40;;;;;;;;;;5007106;28;20026;-76
2022/09/12 07:45:45;;;;;;;7.32;1.60;;;;;;;;;;5007326;28;20053;-75
2022/09/12 07:48:10;;;;;;;6.57;1.23;;;;;;;;;;5007123;28;20034;-76
2022/09/12 07:50:37;;;;;;;4.40;1.20;;;;;;;;;;5007446;28;20037;-75
2022/09/12 07:53:04;;;;;;;5.50;1.30;;;;;;;;;;5007416;28;20026;-75
2022/09/12 07:55:30;;;;;;;4.35;1.42;;;;;;;;;;5007332;28;20056;-75
2022/09/12 07:57:55;;;;;;;3.70;1.55;;;;;;;;;;5006901;28;20537;-76
2022/09/12 08:00:20;;;;;;;5.60;1.38;;;;;;;;;;5007047;28;20041;-76
2022/09/12 08:02:52;;;;;;;4.72;1.35;;;;;;;;;;5007028;28;20093;-76
2022/09/12 08:05:19;;;;;;;4.30;1.40;;;;;;;;;;5007467;28;20030;-76
2022/09/12 08:07:45;;;;;;;3.05;1.50;;;;;;;;;;5007118;28;20036;-76
2022/09/12 08:10:10;;;;;;;5.50;1.35;;;;;;;;;;5006896;28;20030;-76
2022/09/12 08:12:36;;;;;;;5.30;1.73;;;;;;;;;;5006879;28;20030;-76
2022/09/12 08:15:01;;;;;;;9.70;1.60;;;;;;;;;;5007016;28;20686;-76
2022/09/12 08:17:28;;;;;;;5.05;1.70;;;;;;;;;;5006794;28;20056;-76
2022/09/12 08:19:53;;;;;;;10.65;2.15;;;;;;;;;;5007104;28;20054;-76
2022/09/12 08:22:20;;;;;;;5.45;1.80;;;;;;;;;;5006964;28;20061;-76
2022/09/12 08:24:46;;;;;;;6.57;1.80;;;;;;;;;;5007181;28;20057;-75
2022/09/12 08:27:12;;;;;;;4.85;1.50;;;;;;;;;;5007016;28;20057;-77
2022/09/12 08:29:37;;;;;;;5.07;1.55;;;;;;;;;;4989177;28;20038;-77
2022/09/12 08:32:02;;;;;;;6.22;1.75;;;;;;;;;;5006794;28;20466;-77
2022/09/12 08:34:28;;;;;;;6.40;1.70;;;;;;;;;;5006590;28;20109;-77
2022/09/12 08:36:54;;;;;;;13.57;2.42;;;;;;;;;;5006824;28;20022;-77
2022/09/12 08:39:20;;;;;;;12.85;2.53;;;;;;;;;;5006591;28;20417;-77
2022/09/12 08:41:48;;;;;;;12.50;1.90;;;;;;;;;;5006670;28;20109;-77
2022/09/12 08:44:38;;;;;;;7.97;1.80;;;;;;;;;;5006553;28;20030;-77
2022/09/12 08:47:27;;;;;;;14.90;1.95;;;;;;;;;;5006650;28;20034;-78
2022/09/12 08:50:14;;;;;;;6.78;1.92;;;;;;;;;;5008689;28;20037;-77
2022/09/12 08:52:39;;;;;;;6.70;1.85;;;;;;;;;;5009815;28;20130;-78
2022/09/12 08:55:22;;;;;;;5.50;1.88;;;;;;;;;;5010005;28;20041;-78
2022/09/12 08:57:47;;;;;;;8.50;1.60;;;;;;;;;;5009814;28;20079;-77
2022/09/12 09:00:20;;;;;;;6.03;1.77;;;;;;;;;;5010082;28;20053;-79
2022/09/12 09:02:49;;;;;;;11.98;1.52;;;;;;;;;;4992393;28;20481;-79
2022/09/12 09:05:23;;;;;;;6.00;1.40;;;;;;;;;;5009895;28;20089;-80
2022/09/12 09:08:04;;;;;;;8.35;1.63;;;;;;;;;;5009938;28;20477;-78
2022/09/12 09:10:37;;;;;;;;;;;;;;;;;;5009842;28;20029;-79
2022/09/12 09:16:22;;;;;;;4.55;1.23;;;;;;;;;;5010171;28;20095;-79
2022/09/12 09:18:49;;;;;;;9.48;1.63;;;;;;;;;;5009665;28;20033;-78
2022/09/12 09:21:26;;;;;;;9.23;1.35;;;;;;;;;;5009885;28;20030;-79
2022/09/12 09:24:05;;;;;;;10.88;1.48;;;;;;;;;;5009286;28;20477;-78
2022/09/12 09:26:31;;;;;;;9.52;1.38;;;;;;;;;;5009598;28;20030;-79
2022/09/12 09:29:04;;;;;;;5.32;1.58;;;;;;;;;;5009031;28;20033;-79
2022/09/12 09:31:37;;;;;;;9.82;1.40;;;;;;;;;;5009471;28;20439;-79
2022/09/12 09:34:12;;;;;;;7.90;1.30;;;;;;;;;;5009284;28;20022;-80
2022/09/12 09:37:05;;;;;;;6.05;1.25;;;;;;;;;;5009572;28;20052;-79
2022/09/12 09:39:51;;;;;;;8.38;1.58;;;;;;;;;;5009357;28;20033;-78
2022/09/12 09:42:16;;;;;;;16.80;1.50;;;;;;;;;;5009101;28;20042;-79
2022/09/12 09:44:43;;;;;;;9.02;1.65;;;;;;;;;;4991399;28;20079;-77
2022/09/12 09:47:10;;;;;;;6.25;1.40;;;;;;;;;;5009305;28;20034;-78
2022/09/12 09:49:36;;;;;;;8.60;1.60;;;;;;;;;;5009236;28;20018;-78
2022/09/12 09:52:03;;;;;;;14.75;1.67;;;;;;;;;;5009250;28;20503;-79
2022/09/12 09:54:36;;;;;;;7.95;1.42;;;;;;;;;;4991457;28;20450;-78
2022/09/12 09:57:02;;;;;;;8.80;1.40;;;;;;;;;;5009243;28;20026;-79
2022/09/12 09:59:35;;;;;;;4.20;1.35;;;;;;;;;;5008750;28;20029;-79
2022/09/12 10:02:12;;;;;;;6.47;1.13;;;;;;;;;;5009654;28;20029;-78
2022/09/12 10:04:40;;;;;;;8.30;1.33;;;;;;;;;;5009490;28;20034;-80
2022/09/12 10:07:17;;;;;;;7.95;1.30;;;;;;;;;;5009105;28;20033;-78
2022/09/12 10:10:02;;;;;;;4.88;1.33;;;;;;;;;;5009151;28;20041;-78
2022/09/12 10:12:28;;;;;;;6.68;1.38;;;;;;;;;;5008628;28;20029;-78
2022/09/12 10:14:59;;;;;;;9.60;1.30;;;;;;;;;;5009234;28;20030;-78
2022/09/12 10:17:40;;;;;;;5.88;1.50;;;;;;;;;;5008848;28;20054;-78
2022/09/12 10:20:31;;;;;;;5.28;1.50;;;;;;;;;;5008420;28;20026;-77
2022/09/12 10:22:59;;;;;;;4.90;1.30;;;;;;;;;;5008716;28;20052;-80
2022/09/12 10:25:26;;;;;;;7.30;1.50;;;;;;;;;;4990961;28;20049;-76
2022/09/12 10:27:57;;;;;;;4.68;1.40;;;;;;;;;;5008830;28;20058;-79
2022/09/12 10:30:26;;;;;;;6.50;1.52;;;;;;;;;;5008244;28;20033;-80
2022/09/12 10:32:55;;;;;;;4.93;1.40;;;;;;;;;;5008673;28;20026;-79
2022/09/12 10:35:29;;;;;;;11.00;1.60;;;;;;;;;;5008219;28;20034;-79
2022/09/12 10:38:04;;;;;;;5.28;1.30;;;;;;;;;;5008538;28;20120;-81
2022/09/12 10:40:58;;;;;;;5.25;1.73;;;;;;;;;;5008151;28;20049;-78
2022/09/12 10:43:32;;;;;;;8.25;1.50;;;;;;;;;;4991015;28;20021;-79
2022/09/12 10:46:18;;;;;;;11.90;1.80;;;;;;;;;;5008246;28;20100;-81
2022/09/12 10:49:07;;;;;;;6.90;1.65;;;;;;;;;;5008302;28;20041;-75
2022/09/12 10:51:33;;;;;;;5.82;1.70;;;;;;;;;;4989750;28;20120;-77
2022/09/12 10:54:01;;;;;;;4.93;1.50;;;;;;;;;;5008018;28;20124;-77
2022/09/12 10:56:33;;;;;;;7.80;1.75;;;;;;;;;;5008164;28;20028;-74
2022/09/12 10:59:24;;;;;;;6.38;1.67;;;;;;;;;;4990410;28;20489;-76
2022/09/12 11:01:58;;;;;;;7.78;2.20;;;;;;;;;;5008042;28;20061;-75
2022/09/12 11:04:39;;;;;;;8.25;1.90;;;;;;;;;;4990272;28;20100;-75
2022/09/12 11:07:32;;;;;;;10.52;1.70;;;;;;;;;;5008113;28;20029;-75
2022/09/12 11:10:38;;;;;;;5.50;1.80;;;;;;;;;;5007741;28;20105;-75
2022/09/12 11:13:12;;;;;;;8.77;1.92;;;;;;;;;;5006450;28;20667;-76
2022/09/12 11:15:59;;;;;;;9.10;1.77;;;;;;;;;;5007884;28;20033;-74
2022/09/12 11:18:32;;;;;;;11.45;2.20;;;;;;;;;;5008023;28;20025;-75
2022/09/12 11:21:25;;;;;;;14.20;1.90;;;;;;;;;;5007610;28;20473;-75
2022/09/12 11:24:07;;;;;;;16.38;2.15;;;;;;;;;;5007995;28;20041;-74
2022/09/12 11:26:52;;;;;;;15.05;2.25;;;;;;;;;;5007656;28;20501;-76
2022/09/12 11:29:24;;;;;;;13.18;1.85;;;;;;;;;;5007612;28;20030;-77
2022/09/12 11:32:09;;;;;;;5.55;1.77;;;;;;;;;;5007502;28;20038;-75
2022/09/12 11:34:48;;;;;;;9.30;1.70;;;;;;;;;;5007505;28;20030;-74
2022/09/12 11:37:29;;;;;;;13.07;1.90;;;;;;;;;;5007779;28;20033;-75
2022/09/12 11:40:04;;;;;;;4.97;1.65;;;;;;;;;;5007544;28;20106;-77
2022/09/12 11:42:34;;;;;;;4.90;1.60;;;;;;;;;;5007340;28;20029;-77
2022/09/12 11:45:34;;;;;;;7.63;1.90;;;;;;;;;;5007168;28;20060;-75
2022/09/12 11:48:06;;;;;;;14.50;2.10;;;;;;;;;;5007281;28;20117;-75
2022/09/12 11:50:32;;;;;;;11.68;2.03;;;;;;;;;;5007040;28;20448;-74
2022/09/12 11:53:05;;;;;;;8.07;1.90;;;;;;;;;;5007508;28;20041;-75
2022/09/12 11:55:51;;;;;;;8.23;2.00;;;;;;;;;;5007221;28;20026;-75
2022/09/12 11:58:21;;;;;;;7.63;2.00;;;;;;;;;;5007331;28;20106;-76
2022/09/12 12:00:52;;;;;;;5.32;2.00;;;;;;;;;;5007173;28;20114;-75
2022/09/12 12:03:41;;;;;;;6.80;2.20;;;;;;;;;;5007371;28;20025;-74
2022/09/12 12:06:48;;;;;;;15.50;2.20;;;;;;;;;;5007020;28;20033;-74
2022/09/12 12:09:13;;;;;;;6.35;1.75;;;;;;;;;;5006909;28;20398;-75
2022/09/12 12:11:47;;;;;;;8.00;2.00;;;;;;;;;;5006993;28;20482;-75
2022/09/12 12:14:18;;;;;;;11.38;2.00;;;;;;;;;;4989813;28;20106;-75
2022/09/12 12:16:45;;;;;;;7.63;2.00;;;;;;;;;;5006990;28;20474;-76
2022/09/12 12:19:13;;;;;;;11.77;1.85;;;;;;;;;;5007081;28;20034;-75
2022/09/12 12:21:43;;;;;;;8.60;1.70;;;;;;;;;;5006505;28;20034;-75
2022/09/12 12:24:09;;;;;;;8.82;1.92;;;;;;;;;;5009628;28;20205;-75
2022/09/12 12:26:37;;;;;;;5.97;1.60;;;;;;;;;;5010405;28;20355;-75
2022/09/12 12:29:03;;;;;;;10.00;1.65;;;;;;;;;;5010521;28;20116;-76
2022/09/12 12:31:29;;;;;;;7.43;1.70;;;;;;;;;;5009896;28;20092;-75
2022/09/12 12:34:19;;;;;;;6.80;1.80;;;;;;;;;;5010504;28;20460;-75
2022/09/12 12:36:45;;;;;;;7.10;1.70;;;;;;;;;;5010143;28;20030;-76
2022/09/12 12:39:30;;;;;;;6.78;1.70;;;;;;;;;;5010320;28;20550;-75
2022/09/12 12:41:56;;;;;;;4.47;1.40;;;;;;;;;;5009338;28;20413;-75
2022/09/12 12:44:43;;;;;;;9.45;1.65;;;;;;;;;;5010361;28;20022;-75
2022/09/12 12:47:32;;;;;;;7.93;1.70;;;;;;;;;;5010188;28;20124;-74
2022/09/12 12:50:05;;;;;;;7.20;1.83;;;;;;;;;;5010228;28;20029;-77
2022/09/12 12:52:41;;;;;;;13.98;2.20;;;;;;;;;;4976824;28;20026;-75
2022/09/12 12:55:15;;;;;;;6.82;1.60;;;;;;;;;;5009968;28;20489;-74
2022/09/12 12:57:59;;;;;;;10.48;1.73;;;;;;;;;;5009676;28;20033;-75
2022/09/12 13:00:28;;;;;;;10.05;1.60;;;;;;;;;;4992002;28;20026;-75
2022/09/12 13:03:03;;;;;;;12.00;1.77;;;;;;;;;;5009921;28;20022;-74
2022/09/12 13:05:50;;;;;;;11.45;1.92;;;;;;;;;;5009815;28;20216;-77
2022/09/12 13:08:15;;;;;;;13.70;1.88;;;;;;;;;;5009950;28;20030;-75
2022/09/12 13:10:52;;;;;;;11.02;1.77;;;;;;;;;;5009585;28;20045;-75
2022/09/12 13:13:32;;;;;;;6.13;1.58;;;;;;;;;;5009355;28;20036;-77
2022/09/12 13:15:58;;;;;;;5.13;1.58;;;;;;;;;;5009548;28;20026;-75
2022/09/12 13:18:26;;;;;;;22.33;2.30;;;;;;;;;;4992268;28;20030;-75
2022/09/12 13:21:13;;;;;;;10.55;1.80;;;;;;;;;;5009592;28;20517;-75
2022/09/12 13:23:40;;;;;;;7.53;1.63;;;;;;;;;;5009650;28;20478;-74
2022/09/12 13:26:33;;;;;;;9.13;1.83;;;;;;;;;;5009612;28;20037;-77
2022/09/12 13:29:20;;;;;;;5.47;1.40;;;;;;;;;;5009133;28;20044;-76
2022/09/12 13:31:49;;;;;;;9.18;1.50;;;;;;;;;;5009145;28;20045;-78
2022/09/12 13:34:22;;;;;;;8.17;1.73;;;;;;;;;;5008964;28;20359;-76
2022/09/12 13:37:25;;;;;;;3.97;1.33;;;;;;;;;;4991595;28;20269;-75
2022/09/12 13:40:11;;;;;;;6.22;1.40;;;;;;;;;;5009515;28;20033;-75
2022/09/12 13:43:01;;;;;;;16.60;1.50;;;;;;;;;;5008942;28;20595;-75
2022/09/12 13:45:26;;;;;;;8.57;1.75;;;;;;;;;;5009229;28;20111;-76
2022/09/12 13:48:03;;;;;;;5.40;1.50;;;;;;;;;;5009186;28;20054;-75
2022/09/12 13:50:38;;;;;;;8.13;1.60;;;;;;;;;;5009069;28;20022;-75
2022/09/12 13:53:05;;;;;;;8.13;1.70;;;;;;;;;;5008867;28;20022;-75
2022/09/12 13:55:32;;;;;;;5.65;1.40;;;;;;;;;;5009242;28;20105;-75
2022/09/12 13:58:22;;;;;;;5.40;1.58;;;;;;;;;;5008860;28;20068;-76
2022/09/12 14:01:01;;;;;;;9.85;1.60;;;;;;;;;;5008678;28;20492;-76
2022/09/12 14:06:17;;;;;;;;;;;;;;;;;;5009452;28;20037;-75
2022/09/12 14:08:45;;;;;;;3.92;1.45;;;;;;;;;;5008908;28;19958;-75
2022/09/12 14:11:22;;;;;;;3.78;1.30;;;;;;;;;;5008727;28;20038;-76
2022/09/12 14:13:47;;;;;;;8.82;1.60;;;;;;;;;;5008664;28;20026;-75
2022/09/12 14:16:15;;;;;;;6.60;1.30;;;;;;;;;;5008866;28;20651;-77
2022/09/12 14:18:43;;;;;;;3.53;1.40;;;;;;;;;;4991233;28;20026;-74
2022/09/12 14:21:11;;;;;;;4.32;1.50;;;;;;;;;;5008733;28;20045;-74
2022/09/12 14:23:43;;;;;;;4.53;1.50;;;;;;;;;;5008629;28;20040;-76
2022/09/12 14:26:12;;;;;;;4.00;1.40;;;;;;;;;;5008588;28;20082;-76
2022/09/12 14:28:46;;;;;;;8.98;1.60;;;;;;;;;;5008516;28;20030;-76
2022/09/12 14:31:11;;;;;;;7.57;1.40;;;;;;;;;;5008556;28;20026;-76
2022/09/12 14:33:54;;;;;;;6.97;1.60;;;;;;;;;;5008373;28;20070;-75
2022/09/12 14:36:21;;;;;;;12.07;1.60;;;;;;;;;;5008588;28;20057;-74
2022/09/12 14:38:51;;;;;;;6.03;1.42;;;;;;;;;;4990895;28;20030;-74
2022/09/12 14:41:37;;;;;;;10.03;1.57;;;;;;;;;;5008396;28;20481;-74
2022/09/12 14:44:07;;;;;;;4.28;1.35;;;;;;;;;;5008039;28;20045;-75
2022/09/12 14:46:40;;;;;;;5.95;1.42;;;;;;;;;;5007049;28;20057;-73
2022/09/12 14:49:39;;;;;;;5.32;1.40;;;;;;;;;;4991051;28;20094;-75
2022/09/12 14:52:08;;;;;;;7.78;1.52;;;;;;;;;;5007847;28;20497;-74
2022/09/12 14:54:36;;;;;;;6.32;1.42;;;;;;;;;;5008368;28;20036;-74
2022/09/12 14:57:27;;;;;;;6.78;1.65;;;;;;;;;;5008090;28;20133;-76
2022/09/12 15:00:03;;;;;;;7.03;1.60;;;;;;;;;;5007722;28;20080;-76
2022/09/12 15:02:29;;;;;;;4.15;1.50;;;;;;;;;;5007789;28;20518;-75
2022/09/12 15:05:18;;;;;;;7.10;1.60;;;;;;;;;;5008176;28;20493;-74
2022/09/12 15:07:56;;;;;;;5.75;1.60;;;;;;;;;;5147812;27;20392;-77
2022/09/12 15:10:36;;;;;;;5.00;1.42;;;;;;;;;;5109824;28;20042;-75
2022/09/12 15:13:04;;;;;;;5.65;1.40;;;;;;;;;;5127692;28;20035;-76
2022/09/12 15:15:31;;;;;;;4.60;1.65;;;;;;;;;;5128079;28;20394;-76
2022/09/12 15:17:57;;;;;;;15.15;1.90;;;;;;;;;;5127781;28;20396;-74
2022/09/12 15:20:22;;;;;;;5.75;1.60;;;;;;;;;;5127938;28;20027;-75